sensor_id;sensor_type;location;lat;lon;timestamp;temperature;humidity
70947;DHT22;58605;48.700;8.760;2023-05-23T00:01:05;13.20;99.90
70947;DHT22;58605;48.700;8.760;2023-05-23T00:03:33;13.30;99.90
70947;DHT22;58605;48.700;8.760;2023-05-23T00:06:00;13.30;99.90
70947;DHT22;58605;48.700;8.760;2023-05-23T00:08:29;13.40;99.90
70947;DHT22;58605;48.700;8.760;2023-05-23T00:10:55;13.50;99.90
70947;DHT22;58605;48.700;8.760;2023-05-23T00:13:22;13.70;99.90
70947;DHT22;58605;48.700;8.760;2023-05-23T00:15:48;13.80;99.90
70947;DHT22;58605;48.700;8.760;2023-05-23T00:18:15;14.00;99.90
70947;DHT22;58605;48.700;8.760;2023-05-23T00:20:42;14.10;99.90
70947;DHT22;58605;48.700;8.760;2023-05-23T00:23:09;14.30;99.90
70947;DHT22;58605;48.700;8.760;2023-05-23T00:25:37;14.20;99.90
70947;DHT22;58605;48.700;8.760;2023-05-23T00:28:03;14.10;99.90
70947;DHT22;58605;48.700;8.760;2023-05-23T00:30:30;14.00;99.90
70947;DHT22;58605;48.700;8.760;2023-05-23T00:32:57;13.90;99.90
70947;DHT22;58605;48.700;8.760;2023-05-23T00:35:26;13.60;99.90
70947;DHT22;58605;48.700;8.760;2023-05-23T00:37:52;13.60;99.90
70947;DHT22;58605;48.700;8.760;2023-05-23T00:40:19;13.50;99.90
70947;DHT22;58605;48.700;8.760;2023-05-23T00:42:49;13.40;99.90
70947;DHT22;58605;48.700;8.760;2023-05-23T00:45:15;13.40;99.90
70947;DHT22;58605;48.700;8.760;2023-05-23T00:47:43;13.30;99.90
70947;DHT22;58605;48.700;8.760;2023-05-23T00:50:14;13.30;99.90
70947;DHT22;58605;48.700;8.760;2023-05-23T00:52:41;13.50;99.90
70947;DHT22;58605;48.700;8.760;2023-05-23T00:55:08;13.60;99.90
70947;DHT22;58605;48.700;8.760;2023-05-23T00:57:35;13.50;99.90
70947;DHT22;58605;48.700;8.760;2023-05-23T01:00:08;13.60;99.90
70947;DHT22;58605;48.700;8.760;2023-05-23T01:02:39;13.70;99.90
70947;DHT22;58605;48.700;8.760;2023-05-23T01:05:09;13.70;99.90
70947;DHT22;58605;48.700;8.760;2023-05-23T01:07:36;13.90;99.90
70947;DHT22;58605;48.700;8.760;2023-05-23T01:10:03;13.90;99.90
70947;DHT22;58605;48.700;8.760;2023-05-23T01:12:38;14.00;99.90
70947;DHT22;58605;48.700;8.760;2023-05-23T01:15:11;14.00;99.90
70947;DHT22;58605;48.700;8.760;2023-05-23T01:17:43;14.30;99.90
70947;DHT22;58605;48.700;8.760;2023-05-23T01:20:11;14.60;99.90
70947;DHT22;58605;48.700;8.760;2023-05-23T01:22:53;14.90;99.90
70947;DHT22;58605;48.700;8.760;2023-05-23T01:25:38;15.20;99.90
70947;DHT22;58605;48.700;8.760;2023-05-23T01:28:16;15.30;99.90
70947;DHT22;58605;48.700;8.760;2023-05-23T01:30:44;15.30;99.90
70947;DHT22;58605;48.700;8.760;2023-05-23T01:33:14;15.30;99.90
70947;DHT22;58605;48.700;8.760;2023-05-23T01:35:51;15.30;99.90
70947;DHT22;58605;48.700;8.760;2023-05-23T01:38:17;15.40;99.90
70947;DHT22;58605;48.700;8.760;2023-05-23T01:40:43;15.50;99.90
70947;DHT22;58605;48.700;8.760;2023-05-23T01:43:10;15.60;99.90
70947;DHT22;58605;48.700;8.760;2023-05-23T01:45:40;15.60;99.90
70947;DHT22;58605;48.700;8.760;2023-05-23T01:48:07;15.60;99.90
70947;DHT22;58605;48.700;8.760;2023-05-23T01:50:34;15.60;99.90
70947;DHT22;58605;48.700;8.760;2023-05-23T01:53:01;15.60;99.90
70947;DHT22;58605;48.700;8.760;2023-05-23T01:55:28;15.70;99.90
70947;DHT22;58605;48.700;8.760;2023-05-23T01:57:56;15.70;99.90
70947;DHT22;58605;48.700;8.760;2023-05-23T02:00:27;15.80;99.90
70947;DHT22;58605;48.700;8.760;2023-05-23T02:02:54;15.90;99.90
70947;DHT22;58605;48.700;8.760;2023-05-23T02:05:21;15.90;99.90
70947;DHT22;58605;48.700;8.760;2023-05-23T02:07:47;15.90;99.90
70947;DHT22;58605;48.700;8.760;2023-05-23T02:10:18;15.90;99.90
70947;DHT22;58605;48.700;8.760;2023-05-23T02:12:45;15.90;99.90
70947;DHT22;58605;48.700;8.760;2023-05-23T02:15:11;16.00;99.90
70947;DHT22;58605;48.700;8.760;2023-05-23T02:17:37;16.10;99.90
70947;DHT22;58605;48.700;8.760;2023-05-23T02:20:07;16.10;99.90
70947;DHT22;58605;48.700;8.760;2023-05-23T02:22:37;16.10;99.90
70947;DHT22;58605;48.700;8.760;2023-05-23T02:25:05;16.20;99.90
70947;DHT22;58605;48.700;8.760;2023-05-23T02:27:31;16.30;99.90
70947;DHT22;58605;48.700;8.760;2023-05-23T02:29:58;16.40;99.90
70947;DHT22;58605;48.700;8.760;2023-05-23T02:32:32;16.40;99.90
70947;DHT22;58605;48.700;8.760;2023-05-23T02:34:59;16.50;99.90
70947;DHT22;58605;48.700;8.760;2023-05-23T02:37:27;16.50;99.90
70947;DHT22;58605;48.700;8.760;2023-05-23T02:39:56;16.50;99.90
70947;DHT22;58605;48.700;8.760;2023-05-23T02:42:22;16.50;99.90
70947;DHT22;58605;48.700;8.760;2023-05-23T02:44:49;16.50;99.90
70947;DHT22;58605;48.700;8.760;2023-05-23T02:47:15;16.30;99.90
70947;DHT22;58605;48.700;8.760;2023-05-23T02:49:41;16.10;99.90
70947;DHT22;58605;48.700;8.760;2023-05-23T02:52:07;16.00;99.90
70947;DHT22;58605;48.700;8.760;2023-05-23T02:54:35;15.90;99.90
70947;DHT22;58605;48.700;8.760;2023-05-23T02:57:01;15.70;99.90
70947;DHT22;58605;48.700;8.760;2023-05-23T02:59:41;15.60;99.90
70947;DHT22;58605;48.700;8.760;2023-05-23T03:02:07;15.60;99.90
70947;DHT22;58605;48.700;8.760;2023-05-23T03:04:33;15.60;99.90
70947;DHT22;58605;48.700;8.760;2023-05-23T03:07:06;15.70;99.90
70947;DHT22;58605;48.700;8.760;2023-05-23T03:09:37;15.90;99.90
70947;DHT22;58605;48.700;8.760;2023-05-23T03:12:04;15.90;99.90
70947;DHT22;58605;48.700;8.760;2023-05-23T03:14:31;16.00;99.90
70947;DHT22;58605;48.700;8.760;2023-05-23T03:17:16;16.00;99.90
70947;DHT22;58605;48.700;8.760;2023-05-23T03:19:42;16.00;99.90
70947;DHT22;58605;48.700;8.760;2023-05-23T03:22:08;16.00;99.90
70947;DHT22;58605;48.700;8.760;2023-05-23T03:24:36;16.00;99.90
70947;DHT22;58605;48.700;8.760;2023-05-23T03:27:04;16.00;99.90
70947;DHT22;58605;48.700;8.760;2023-05-23T03:29:30;16.10;99.90
70947;DHT22;58605;48.700;8.760;2023-05-23T03:32:00;16.10;99.90
70947;DHT22;58605;48.700;8.760;2023-05-23T03:34:26;16.10;99.90
70947;DHT22;58605;48.700;8.760;2023-05-23T03:36:52;16.20;99.90
70947;DHT22;58605;48.700;8.760;2023-05-23T03:39:18;16.20;99.90
70947;DHT22;58605;48.700;8.760;2023-05-23T03:41:47;16.20;99.90
70947;DHT22;58605;48.700;8.760;2023-05-23T03:44:13;16.30;99.90
70947;DHT22;58605;48.700;8.760;2023-05-23T03:46:40;16.40;99.90
70947;DHT22;58605;48.700;8.760;2023-05-23T03:49:12;16.40;99.90
70947;DHT22;58605;48.700;8.760;2023-05-23T03:51:39;16.50;99.90
70947;DHT22;58605;48.700;8.760;2023-05-23T03:54:06;16.60;99.90
70947;DHT22;58605;48.700;8.760;2023-05-23T03:56:35;16.70;99.90
70947;DHT22;58605;48.700;8.760;2023-05-23T03:59:03;16.70;99.90
70947;DHT22;58605;48.700;8.760;2023-05-23T04:01:32;16.60;99.90
70947;DHT22;58605;48.700;8.760;2023-05-23T04:03:58;16.50;99.90
70947;DHT22;58605;48.700;8.760;2023-05-23T04:06:26;16.50;99.90
70947;DHT22;58605;48.700;8.760;2023-05-23T04:08:56;16.40;99.90
70947;DHT22;58605;48.700;8.760;2023-05-23T04:11:23;16.40;99.90
70947;DHT22;58605;48.700;8.760;2023-05-23T04:13:52;16.40;99.90
70947;DHT22;58605;48.700;8.760;2023-05-23T04:16:20;16.40;99.90
70947;DHT22;58605;48.700;8.760;2023-05-23T04:18:49;16.40;99.90
70947;DHT22;58605;48.700;8.760;2023-05-23T04:21:16;16.30;99.90
70947;DHT22;58605;48.700;8.760;2023-05-23T04:23:45;16.30;99.90
70947;DHT22;58605;48.700;8.760;2023-05-23T04:26:12;16.20;99.90
70947;DHT22;58605;48.700;8.760;2023-05-23T04:28:38;16.20;99.90
70947;DHT22;58605;48.700;8.760;2023-05-23T04:31:05;16.10;99.90
70947;DHT22;58605;48.700;8.760;2023-05-23T04:33:41;16.10;99.90
70947;DHT22;58605;48.700;8.760;2023-05-23T04:36:13;16.00;99.90
70947;DHT22;58605;48.700;8.760;2023-05-23T04:38:40;15.90;99.90
70947;DHT22;58605;48.700;8.760;2023-05-23T04:41:07;15.90;99.90
70947;DHT22;58605;48.700;8.760;2023-05-23T04:43:45;15.90;99.90
70947;DHT22;58605;48.700;8.760;2023-05-23T04:46:14;15.80;99.90
70947;DHT22;58605;48.700;8.760;2023-05-23T04:48:45;15.70;99.90
70947;DHT22;58605;48.700;8.760;2023-05-23T04:51:11;15.70;99.90
70947;DHT22;58605;48.700;8.760;2023-05-23T04:53:50;15.70;99.90
70947;DHT22;58605;48.700;8.760;2023-05-23T04:56:24;15.70;99.90
70947;DHT22;58605;48.700;8.760;2023-05-23T04:59:07;15.70;99.90
70947;DHT22;58605;48.700;8.760;2023-05-23T05:01:45;15.70;99.90
70947;DHT22;58605;48.700;8.760;2023-05-23T05:10:22;15.80;99.90
70947;DHT22;58605;48.700;8.760;2023-05-23T05:13:13;15.70;99.90
70947;DHT22;58605;48.700;8.760;2023-05-23T05:16:09;15.70;99.90
70947;DHT22;58605;48.700;8.760;2023-05-23T05:18:39;15.70;99.90
70947;DHT22;58605;48.700;8.760;2023-05-23T05:21:13;15.70;99.90
70947;DHT22;58605;48.700;8.760;2023-05-23T05:23:50;15.70;99.90
70947;DHT22;58605;48.700;8.760;2023-05-23T05:26:24;15.80;99.90
70947;DHT22;58605;48.700;8.760;2023-05-23T05:28:58;15.70;99.90
70947;DHT22;58605;48.700;8.760;2023-05-23T05:31:30;15.70;99.90
70947;DHT22;58605;48.700;8.760;2023-05-23T05:33:58;15.70;99.90
70947;DHT22;58605;48.700;8.760;2023-05-23T05:36:31;15.70;99.90
70947;DHT22;58605;48.700;8.760;2023-05-23T05:39:03;15.70;99.90
70947;DHT22;58605;48.700;8.760;2023-05-23T05:41:33;15.70;99.90
70947;DHT22;58605;48.700;8.760;2023-05-23T05:44:07;15.70;99.90
70947;DHT22;58605;48.700;8.760;2023-05-23T05:46:38;15.80;99.90
70947;DHT22;58605;48.700;8.760;2023-05-23T05:49:10;15.80;99.90
70947;DHT22;58605;48.700;8.760;2023-05-23T05:51:37;15.80;99.90
70947;DHT22;58605;48.700;8.760;2023-05-23T05:54:04;15.80;99.90
70947;DHT22;58605;48.700;8.760;2023-05-23T05:56:35;15.70;99.90
70947;DHT22;58605;48.700;8.760;2023-05-23T05:59:12;15.70;99.90
70947;DHT22;58605;48.700;8.760;2023-05-23T06:01:52;15.70;99.90
70947;DHT22;58605;48.700;8.760;2023-05-23T06:04:18;15.70;99.90
70947;DHT22;58605;48.700;8.760;2023-05-23T06:07:00;15.70;99.90
70947;DHT22;58605;48.700;8.760;2023-05-23T06:09:42;15.80;99.90
70947;DHT22;58605;48.700;8.760;2023-05-23T06:12:14;15.80;99.90
70947;DHT22;58605;48.700;8.760;2023-05-23T06:14:53;15.80;99.90
70947;DHT22;58605;48.700;8.760;2023-05-23T06:17:25;16.00;99.90
70947;DHT22;58605;48.700;8.760;2023-05-23T06:19:54;16.10;99.90
70947;DHT22;58605;48.700;8.760;2023-05-23T06:22:21;16.10;99.90
70947;DHT22;58605;48.700;8.760;2023-05-23T06:24:47;16.10;99.90
70947;DHT22;58605;48.700;8.760;2023-05-23T06:27:16;16.10;99.90
70947;DHT22;58605;48.700;8.760;2023-05-23T06:29:42;16.20;99.90
70947;DHT22;58605;48.700;8.760;2023-05-23T06:32:11;16.50;99.90
70947;DHT22;58605;48.700;8.760;2023-05-23T06:34:40;16.50;99.90
70947;DHT22;58605;48.700;8.760;2023-05-23T06:37:10;16.50;99.90
70947;DHT22;58605;48.700;8.760;2023-05-23T06:39:36;16.30;99.90
70947;DHT22;58605;48.700;8.760;2023-05-23T06:42:04;16.40;99.90
70947;DHT22;58605;48.700;8.760;2023-05-23T06:44:53;16.40;99.90
70947;DHT22;58605;48.700;8.760;2023-05-23T06:47:19;16.30;99.90
70947;DHT22;58605;48.700;8.760;2023-05-23T06:49:46;16.20;99.90
70947;DHT22;58605;48.700;8.760;2023-05-23T06:52:14;16.20;99.90
70947;DHT22;58605;48.700;8.760;2023-05-23T06:54:47;16.10;99.90
70947;DHT22;58605;48.700;8.760;2023-05-23T06:57:45;16.00;99.90
70947;DHT22;58605;48.700;8.760;2023-05-23T07:00:29;16.10;99.90
70947;DHT22;58605;48.700;8.760;2023-05-23T07:03:15;15.90;99.90
70947;DHT22;58605;48.700;8.760;2023-05-23T07:05:43;15.70;99.90
70947;DHT22;58605;48.700;8.760;2023-05-23T07:08:17;15.70;99.90
70947;DHT22;58605;48.700;8.760;2023-05-23T07:10:47;15.60;99.90
70947;DHT22;58605;48.700;8.760;2023-05-23T07:13:13;15.60;99.90
70947;DHT22;58605;48.700;8.760;2023-05-23T07:15:43;15.50;99.90
70947;DHT22;58605;48.700;8.760;2023-05-23T07:20:57;15.60;99.90
70947;DHT22;58605;48.700;8.760;2023-05-23T07:23:27;15.60;99.90
70947;DHT22;58605;48.700;8.760;2023-05-23T07:26:00;15.50;99.90
70947;DHT22;58605;48.700;8.760;2023-05-23T07:28:28;15.40;99.90
70947;DHT22;58605;48.700;8.760;2023-05-23T07:30:59;15.50;99.90
70947;DHT22;58605;48.700;8.760;2023-05-23T07:33:29;15.30;99.90
70947;DHT22;58605;48.700;8.760;2023-05-23T07:35:57;15.20;99.90
70947;DHT22;58605;48.700;8.760;2023-05-23T07:38:34;15.20;99.90
70947;DHT22;58605;48.700;8.760;2023-05-23T07:41:04;15.10;99.90
70947;DHT22;58605;48.700;8.760;2023-05-23T07:43:33;15.10;99.90
70947;DHT22;58605;48.700;8.760;2023-05-23T07:46:31;15.10;99.90
70947;DHT22;58605;48.700;8.760;2023-05-23T07:49:00;15.10;99.90
70947;DHT22;58605;48.700;8.760;2023-05-23T07:51:27;15.10;99.90
70947;DHT22;58605;48.700;8.760;2023-05-23T07:53:53;15.00;99.90
70947;DHT22;58605;48.700;8.760;2023-05-23T07:56:19;15.00;99.90
70947;DHT22;58605;48.700;8.760;2023-05-23T07:58:48;14.80;99.90
70947;DHT22;58605;48.700;8.760;2023-05-23T08:01:15;14.90;99.90
70947;DHT22;58605;48.700;8.760;2023-05-23T08:03:45;15.00;99.90
70947;DHT22;58605;48.700;8.760;2023-05-23T08:06:15;15.10;99.90
70947;DHT22;58605;48.700;8.760;2023-05-23T08:08:41;15.20;99.90
70947;DHT22;58605;48.700;8.760;2023-05-23T08:11:08;15.30;99.90
70947;DHT22;58605;48.700;8.760;2023-05-23T08:13:34;15.30;99.90
70947;DHT22;58605;48.700;8.760;2023-05-23T08:16:01;15.40;99.90
70947;DHT22;58605;48.700;8.760;2023-05-23T08:18:27;15.30;99.90
70947;DHT22;58605;48.700;8.760;2023-05-23T08:20:57;15.40;99.90
70947;DHT22;58605;48.700;8.760;2023-05-23T08:23:23;15.40;99.90
70947;DHT22;58605;48.700;8.760;2023-05-23T08:25:49;15.30;99.90
70947;DHT22;58605;48.700;8.760;2023-05-23T08:28:15;15.30;99.90
70947;DHT22;58605;48.700;8.760;2023-05-23T08:30:42;15.20;99.90
70947;DHT22;58605;48.700;8.760;2023-05-23T08:33:08;15.20;99.90
70947;DHT22;58605;48.700;8.760;2023-05-23T08:35:34;15.10;99.90
70947;DHT22;58605;48.700;8.760;2023-05-23T08:38:06;15.00;99.90
70947;DHT22;58605;48.700;8.760;2023-05-23T08:40:34;15.00;99.90
70947;DHT22;58605;48.700;8.760;2023-05-23T08:43:02;15.10;99.90
70947;DHT22;58605;48.700;8.760;2023-05-23T08:45:29;15.20;99.90
70947;DHT22;58605;48.700;8.760;2023-05-23T08:47:59;15.40;99.90
70947;DHT22;58605;48.700;8.760;2023-05-23T08:50:29;15.60;99.90
70947;DHT22;58605;48.700;8.760;2023-05-23T08:52:56;15.70;99.90
70947;DHT22;58605;48.700;8.760;2023-05-23T08:55:26;15.60;99.90
70947;DHT22;58605;48.700;8.760;2023-05-23T08:57:52;15.60;99.90
70947;DHT22;58605;48.700;8.760;2023-05-23T09:00:19;15.70;99.90
70947;DHT22;58605;48.700;8.760;2023-05-23T09:02:46;15.80;99.90
70947;DHT22;58605;48.700;8.760;2023-05-23T09:05:13;15.80;99.90
70947;DHT22;58605;48.700;8.760;2023-05-23T09:07:41;15.80;99.90
70947;DHT22;58605;48.700;8.760;2023-05-23T09:10:09;15.80;99.90
70947;DHT22;58605;48.700;8.760;2023-05-23T09:12:39;15.70;99.90
70947;DHT22;58605;48.700;8.760;2023-05-23T09:15:08;15.70;99.90
70947;DHT22;58605;48.700;8.760;2023-05-23T09:17:35;15.60;99.90
70947;DHT22;58605;48.700;8.760;2023-05-23T09:20:10;15.40;99.90
70947;DHT22;58605;48.700;8.760;2023-05-23T09:22:38;15.50;99.90
70947;DHT22;58605;48.700;8.760;2023-05-23T09:25:05;15.50;99.90
70947;DHT22;58605;48.700;8.760;2023-05-23T09:27:32;15.50;99.90
70947;DHT22;58605;48.700;8.760;2023-05-23T09:30:06;15.50;99.90
70947;DHT22;58605;48.700;8.760;2023-05-23T09:32:32;15.60;98.30
70947;DHT22;58605;48.700;8.760;2023-05-23T09:34:59;15.50;99.30
70947;DHT22;58605;48.700;8.760;2023-05-23T09:37:33;15.50;99.40
70947;DHT22;58605;48.700;8.760;2023-05-23T09:40:00;15.50;99.70
70947;DHT22;58605;48.700;8.760;2023-05-23T09:42:31;15.50;99.70
70947;DHT22;58605;48.700;8.760;2023-05-23T09:44:59;15.70;99.30
70947;DHT22;58605;48.700;8.760;2023-05-23T09:47:27;15.80;99.40
70947;DHT22;58605;48.700;8.760;2023-05-23T09:49:54;16.00;99.40
70947;DHT22;58605;48.700;8.760;2023-05-23T09:52:20;16.10;98.90
70947;DHT22;58605;48.700;8.760;2023-05-23T09:54:53;16.10;95.60
70947;DHT22;58605;48.700;8.760;2023-05-23T09:57:27;16.10;95.30
70947;DHT22;58605;48.700;8.760;2023-05-23T09:59:58;16.40;97.20
70947;DHT22;58605;48.700;8.760;2023-05-23T10:05:32;16.60;94.70
70947;DHT22;58605;48.700;8.760;2023-05-23T10:08:01;16.80;93.10
70947;DHT22;58605;48.700;8.760;2023-05-23T10:10:31;16.90;93.10
70947;DHT22;58605;48.700;8.760;2023-05-23T10:13:01;17.00;93.30
70947;DHT22;58605;48.700;8.760;2023-05-23T10:15:38;17.00;92.50
70947;DHT22;58605;48.700;8.760;2023-05-23T10:18:14;17.10;92.10
70947;DHT22;58605;48.700;8.760;2023-05-23T10:20:46;17.30;91.90
70947;DHT22;58605;48.700;8.760;2023-05-23T10:23:18;17.30;90.90
70947;DHT22;58605;48.700;8.760;2023-05-23T10:25:44;17.20;90.70
70947;DHT22;58605;48.700;8.760;2023-05-23T10:28:11;17.10;90.90
70947;DHT22;58605;48.700;8.760;2023-05-23T10:30:42;17.00;90.80
70947;DHT22;58605;48.700;8.760;2023-05-23T10:33:11;17.20;90.40
70947;DHT22;58605;48.700;8.760;2023-05-23T10:35:47;17.30;91.20
70947;DHT22;58605;48.700;8.760;2023-05-23T10:38:37;17.00;90.20
70947;DHT22;58605;48.700;8.760;2023-05-23T10:41:11;16.70;90.40
70947;DHT22;58605;48.700;8.760;2023-05-23T10:43:46;16.70;91.30
70947;DHT22;58605;48.700;8.760;2023-05-23T10:46:19;16.80;90.40
70947;DHT22;58605;48.700;8.760;2023-05-23T10:49:04;16.80;90.50
70947;DHT22;58605;48.700;8.760;2023-05-23T10:51:38;17.00;91.70
70947;DHT22;58605;48.700;8.760;2023-05-23T10:54:10;17.10;91.10
70947;DHT22;58605;48.700;8.760;2023-05-23T10:56:37;17.10;89.40
70947;DHT22;58605;48.700;8.760;2023-05-23T10:59:04;17.10;90.30
70947;DHT22;58605;48.700;8.760;2023-05-23T11:01:31;17.10;90.10
70947;DHT22;58605;48.700;8.760;2023-05-23T11:04:04;17.00;90.00
70947;DHT22;58605;48.700;8.760;2023-05-23T11:06:32;16.90;91.10
70947;DHT22;58605;48.700;8.760;2023-05-23T11:09:04;16.80;90.10
70947;DHT22;58605;48.700;8.760;2023-05-23T11:11:50;16.60;90.70
70947;DHT22;58605;48.700;8.760;2023-05-23T11:17:15;16.80;92.10
70947;DHT22;58605;48.700;8.760;2023-05-23T11:19:58;16.70;90.50
70947;DHT22;58605;48.700;8.760;2023-05-23T11:22:28;16.50;90.50
70947;DHT22;58605;48.700;8.760;2023-05-23T11:24:56;16.50;91.40
70947;DHT22;58605;48.700;8.760;2023-05-23T11:27:30;16.50;90.70
70947;DHT22;58605;48.700;8.760;2023-05-23T11:29:58;16.60;92.00
70947;DHT22;58605;48.700;8.760;2023-05-23T11:32:29;16.70;90.20
70947;DHT22;58605;48.700;8.760;2023-05-23T11:35:01;16.70;89.80
70947;DHT22;58605;48.700;8.760;2023-05-23T11:37:28;17.00;89.70
70947;DHT22;58605;48.700;8.760;2023-05-23T11:39:54;17.10;88.20
70947;DHT22;58605;48.700;8.760;2023-05-23T11:42:21;17.20;88.10
70947;DHT22;58605;48.700;8.760;2023-05-23T11:44:48;17.20;87.90
70947;DHT22;58605;48.700;8.760;2023-05-23T11:47:17;17.40;87.10
70947;DHT22;58605;48.700;8.760;2023-05-23T11:49:44;17.60;85.40
70947;DHT22;58605;48.700;8.760;2023-05-23T11:52:15;17.50;87.10
70947;DHT22;58605;48.700;8.760;2023-05-23T11:54:41;17.30;86.40
70947;DHT22;58605;48.700;8.760;2023-05-23T11:57:08;17.30;86.90
70947;DHT22;58605;48.700;8.760;2023-05-23T11:59:34;17.20;85.80
70947;DHT22;58605;48.700;8.760;2023-05-23T12:02:01;17.20;86.30
70947;DHT22;58605;48.700;8.760;2023-05-23T12:04:28;17.40;86.60
70947;DHT22;58605;48.700;8.760;2023-05-23T12:06:56;17.60;83.70
70947;DHT22;58605;48.700;8.760;2023-05-23T12:09:24;17.50;83.10
70947;DHT22;58605;48.700;8.760;2023-05-23T12:11:51;17.30;83.10
70947;DHT22;58605;48.700;8.760;2023-05-23T12:14:18;17.30;84.80
70947;DHT22;58605;48.700;8.760;2023-05-23T12:16:45;17.40;82.10
70947;DHT22;58605;48.700;8.760;2023-05-23T12:19:15;17.20;82.00
70947;DHT22;58605;48.700;8.760;2023-05-23T12:21:43;17.20;82.10
70947;DHT22;58605;48.700;8.760;2023-05-23T12:24:15;17.40;84.90
70947;DHT22;58605;48.700;8.760;2023-05-23T12:26:51;17.40;81.00
70947;DHT22;58605;48.700;8.760;2023-05-23T12:29:21;17.30;81.80
70947;DHT22;58605;48.700;8.760;2023-05-23T12:31:53;17.30;81.30
70947;DHT22;58605;48.700;8.760;2023-05-23T12:34:19;17.40;82.50
70947;DHT22;58605;48.700;8.760;2023-05-23T12:36:46;17.40;81.40
70947;DHT22;58605;48.700;8.760;2023-05-23T12:39:14;17.40;81.80
70947;DHT22;58605;48.700;8.760;2023-05-23T12:41:44;17.40;81.60
70947;DHT22;58605;48.700;8.760;2023-05-23T12:44:14;17.30;83.50
70947;DHT22;58605;48.700;8.760;2023-05-23T12:46:42;17.40;82.60
70947;DHT22;58605;48.700;8.760;2023-05-23T12:49:09;17.20;81.50
70947;DHT22;58605;48.700;8.760;2023-05-23T12:51:39;17.20;83.60
70947;DHT22;58605;48.700;8.760;2023-05-23T12:54:07;17.40;82.10
70947;DHT22;58605;48.700;8.760;2023-05-23T12:56:34;17.60;83.20
70947;DHT22;58605;48.700;8.760;2023-05-23T12:59:04;17.70;80.40
70947;DHT22;58605;48.700;8.760;2023-05-23T13:01:39;17.80;80.60
70947;DHT22;58605;48.700;8.760;2023-05-23T13:04:06;17.80;80.10
70947;DHT22;58605;48.700;8.760;2023-05-23T13:06:32;17.70;81.10
70947;DHT22;58605;48.700;8.760;2023-05-23T13:08:59;17.70;80.50
70947;DHT22;58605;48.700;8.760;2023-05-23T13:11:26;17.60;80.20
70947;DHT22;58605;48.700;8.760;2023-05-23T13:14:00;17.50;80.60
70947;DHT22;58605;48.700;8.760;2023-05-23T13:16:26;17.60;79.70
70947;DHT22;58605;48.700;8.760;2023-05-23T13:18:57;17.70;80.40
70947;DHT22;58605;48.700;8.760;2023-05-23T13:21:23;17.70;80.00
70947;DHT22;58605;48.700;8.760;2023-05-23T13:23:52;17.90;80.90
70947;DHT22;58605;48.700;8.760;2023-05-23T13:26:26;17.90;81.60
70947;DHT22;58605;48.700;8.760;2023-05-23T13:28:56;18.00;81.80
70947;DHT22;58605;48.700;8.760;2023-05-23T13:31:22;18.20;82.60
70947;DHT22;58605;48.700;8.760;2023-05-23T13:33:48;18.20;81.40
70947;DHT22;58605;48.700;8.760;2023-05-23T13:36:16;18.20;81.60
70947;DHT22;58605;48.700;8.760;2023-05-23T13:38:44;18.20;83.20
70947;DHT22;58605;48.700;8.760;2023-05-23T13:41:12;18.20;81.90
70947;DHT22;58605;48.700;8.760;2023-05-23T13:43:38;18.30;82.70
70947;DHT22;58605;48.700;8.760;2023-05-23T13:46:05;17.80;84.00
70947;DHT22;58605;48.700;8.760;2023-05-23T13:48:38;17.50;85.10
70947;DHT22;58605;48.700;8.760;2023-05-23T13:51:07;17.10;83.90
70947;DHT22;58605;48.700;8.760;2023-05-23T13:53:35;16.90;85.40
70947;DHT22;58605;48.700;8.760;2023-05-23T13:56:01;16.90;85.70
70947;DHT22;58605;48.700;8.760;2023-05-23T13:58:28;16.90;84.40
70947;DHT22;58605;48.700;8.760;2023-05-23T14:00:54;16.80;84.20
70947;DHT22;58605;48.700;8.760;2023-05-23T14:03:21;16.90;85.80
70947;DHT22;58605;48.700;8.760;2023-05-23T14:05:47;17.10;84.60
70947;DHT22;58605;48.700;8.760;2023-05-23T14:08:13;17.00;84.00
70947;DHT22;58605;48.700;8.760;2023-05-23T14:10:42;17.00;84.70
70947;DHT22;58605;48.700;8.760;2023-05-23T14:13:08;17.10;85.50
70947;DHT22;58605;48.700;8.760;2023-05-23T14:15:34;17.20;84.20
70947;DHT22;58605;48.700;8.760;2023-05-23T14:18:03;17.30;84.20
70947;DHT22;58605;48.700;8.760;2023-05-23T14:20:29;17.20;82.10
70947;DHT22;58605;48.700;8.760;2023-05-23T14:22:56;17.20;83.30
70947;DHT22;58605;48.700;8.760;2023-05-23T14:25:22;17.20;82.10
70947;DHT22;58605;48.700;8.760;2023-05-23T14:27:58;17.40;83.30
70947;DHT22;58605;48.700;8.760;2023-05-23T14:30:24;17.40;82.80
70947;DHT22;58605;48.700;8.760;2023-05-23T14:32:51;17.40;84.40
70947;DHT22;58605;48.700;8.760;2023-05-23T14:35:17;17.40;82.60
70947;DHT22;58605;48.700;8.760;2023-05-23T14:37:46;17.20;82.60
70947;DHT22;58605;48.700;8.760;2023-05-23T14:40:13;17.20;83.70
70947;DHT22;58605;48.700;8.760;2023-05-23T14:42:41;17.10;83.70
70947;DHT22;58605;48.700;8.760;2023-05-23T14:45:10;17.10;85.00
70947;DHT22;58605;48.700;8.760;2023-05-23T14:47:38;17.30;86.10
70947;DHT22;58605;48.700;8.760;2023-05-23T14:50:05;17.60;85.40
70947;DHT22;58605;48.700;8.760;2023-05-23T14:52:31;17.70;83.20
70947;DHT22;58605;48.700;8.760;2023-05-23T14:54:58;17.90;85.70
70947;DHT22;58605;48.700;8.760;2023-05-23T14:57:25;18.10;80.30
70947;DHT22;58605;48.700;8.760;2023-05-23T14:59:55;18.10;82.50
70947;DHT22;58605;48.700;8.760;2023-05-23T15:02:23;18.20;81.10
70947;DHT22;58605;48.700;8.760;2023-05-23T15:04:49;18.30;82.50
70947;DHT22;58605;48.700;8.760;2023-05-23T15:07:18;18.40;80.00
70947;DHT22;58605;48.700;8.760;2023-05-23T15:09:44;18.10;80.70
70947;DHT22;58605;48.700;8.760;2023-05-23T15:12:12;17.80;82.00
70947;DHT22;58605;48.700;8.760;2023-05-23T15:14:41;17.70;82.60
70947;DHT22;58605;48.700;8.760;2023-05-23T15:17:08;17.60;83.80
70947;DHT22;58605;48.700;8.760;2023-05-23T15:19:36;17.80;84.20
70947;DHT22;58605;48.700;8.760;2023-05-23T15:22:04;18.00;81.90
70947;DHT22;58605;48.700;8.760;2023-05-23T15:24:31;18.10;82.20
70947;DHT22;58605;48.700;8.760;2023-05-23T15:26:57;18.20;82.50
70947;DHT22;58605;48.700;8.760;2023-05-23T15:29:24;18.40;81.20
70947;DHT22;58605;48.700;8.760;2023-05-23T15:31:51;18.60;82.50
70947;DHT22;58605;48.700;8.760;2023-05-23T15:34:17;18.80;79.40
70947;DHT22;58605;48.700;8.760;2023-05-23T15:36:45;18.30;79.40
70947;DHT22;58605;48.700;8.760;2023-05-23T15:39:11;18.20;81.00
70947;DHT22;58605;48.700;8.760;2023-05-23T15:41:38;18.00;81.70
70947;DHT22;58605;48.700;8.760;2023-05-23T15:44:04;17.60;82.60
70947;DHT22;58605;48.700;8.760;2023-05-23T15:46:32;17.40;82.30
70947;DHT22;58605;48.700;8.760;2023-05-23T15:49:01;17.40;84.60
70947;DHT22;58605;48.700;8.760;2023-05-23T15:51:28;17.40;81.90
70947;DHT22;58605;48.700;8.760;2023-05-23T15:53:55;17.50;84.10
70947;DHT22;58605;48.700;8.760;2023-05-23T15:56:22;17.80;83.90
70947;DHT22;58605;48.700;8.760;2023-05-23T15:58:48;17.90;80.70